Nearby METAR Reports

 

KBVO - Bartlesville, Oklahoma, USA
Distance from station: WNW 10mi, 16km
Updated: Mon, 20-Jan-2020 1:53am CST
Clear
Clear
 Wind from N
Wind: N 3 mph , 6 km/h
Temperature: 21°F , -6°C
Dew Point: 16°F , -9°C
Humidity: 80%
Barometer: 30.64 inHg , 1037.6 hPa
Clouds: Clear
Visibility: 10 miles , 16 km
2020/01/20 07:53 KBVO 200753Z AUTO 35003KT 10SM CLR M06/M09 A3064 RMK AO2 SLP379 T10611094
KCFV - Coffeyville, Kansas, USA
Distance from station: NNE 31mi, 49km
Updated: Mon, 20-Jan-2020 1:52am CST
Clear
Clear
 Wind from N
Wind: N 6 mph , 9 km/h
Temperature: 19°F , -7°C
Wind Chill: 11°F , -12°C
Dew Point: 12°F , -11°C
Humidity: 73%
Barometer: 30.62 inHg , 1036.9 hPa
Clouds: Clear
Visibility: 10 miles , 16 km
2020/01/20 07:52 KCFV 200752Z AUTO 01005KT 10SM CLR M07/M11 A3062 RMK AO2 SLP378 T10671106
 
KIDP - Independence, Kansas, USA
Distance from station: N 32mi, 52km
Updated: Mon, 20-Jan-2020 2:10am CST
Clear
Clear
 Wind from NNE
Wind: NNE 7 mph , 11 km/h
Temperature: 18°F , -8°C
Wind Chill: 9°F , -13°C
Dew Point: 14°F , -10°C
Humidity: 86%
Barometer: 30.62 inHg , 1036.9 hPa
Clouds: Clear
Visibility: 10 miles , 16 km
2020/01/20 08:10 KIDP 200810Z AUTO 02006KT 10SM CLR M08/M10 A3062 RMK AO2 T10751103
KGCM - Claremore, Oklahoma, USA
Distance from station: SE 35mi, 56km
Updated: Mon, 20-Jan-2020 2:15am CST
Clear
Clear
 Wind from N
Wind: N 3 mph , 6 km/h
Temperature: 23°F , -5°C
Dew Point: 10°F , -12°C
Humidity: 58%
Barometer: 30.62 inHg , 1036.9 hPa
Clouds: Clear
Visibility: 10 miles , 16 km
2020/01/20 08:15 KGCM 200815Z AUTO 36003KT 10SM CLR M05/M12 A3062 RMK AO2
 
KTUL - Tulsa, Oklahoma, USA
Distance from station: S 35mi, 56km
Updated: Mon, 20-Jan-2020 1:53am CST
Clear
Clear
 Wind from N
Wind: N 5 mph , 7 km/h
Temperature: 25°F , -4°C
Wind Chill: 19°F , -7°C
Dew Point: 16°F , -9°C
Humidity: 69%
Barometer: 30.61 inHg , 1036.6 hPa
Clouds: Clear
Visibility: 10 miles , 16 km
2020/01/20 07:53 KTUL 200753Z 36004KT 10SM CLR M04/M09 A3061 RMK AO2 SLP371 T10441089
KRVS - Tulsa, Oklahoma, USA
Distance from station: S 46mi, 74km
Updated: Mon, 20-Jan-2020 1:53am CST
Clear
Clear
 Wind from NNE
Wind: NNE 6 mph , 9 km/h
Temperature: 27°F , -3°C
Wind Chill: 20°F , -7°C
Dew Point: 16°F , -9°C
Humidity: 64%
Barometer: 30.62 inHg , 1036.9 hPa
Clouds: Clear
Visibility: 10 miles , 16 km
2020/01/20 07:53 KRVS 200753Z AUTO 03005KT 10SM CLR M03/M09 A3062 RMK AO2 SLP377 T10281089
 
KPPF - Parsons, Kansas, USA
Distance from station: NNE 48mi, 76km
Updated: Mon, 20-Jan-2020 1:52am CST
Clear
Clear
 Wind from calm
Wind: Calm
Temperature: 18°F , -8°C
Dew Point: 14°F , -10°C
Humidity: 86%
Barometer: 30.62 inHg , 1036.9 hPa
Clouds: Clear
Visibility: 10 miles , 16 km
2020/01/20 07:52 KPPF 200752Z AUTO 00000KT 10SM CLR M08/M10 A3062 RMK AO2 SLP379 T10781100
KGMJ - Grove, Oklahoma, USA
Distance from station: E 63mi, 101km
Updated: Mon, 20-Jan-2020 2:15am CST
Clear
Clear
 Wind from calm
Wind: Calm
Temperature: 21°F , -6°C
Dew Point: 12°F , -11°C
Humidity: 68%
Barometer: 30.60 inHg , 1036.2 hPa
Clouds: Clear
Visibility: 10 miles , 16 km
2020/01/20 08:15 KGMJ 200815Z AUTO 00000KT 10SM CLR M06/M11 A3060 RMK AO2
 
KPNC - Ponca City, Oklahoma, USA
Distance from station: W 69mi, 111km
Updated: Mon, 20-Jan-2020 1:53am CST
Clear
Clear
 Wind from ENE
Wind: ENE 10 mph , 17 km/h
Temperature: 23°F , -5°C
Wind Chill: 13°F , -11°C
Dew Point: 14°F , -10°C
Humidity: 68%
Barometer: 30.59 inHg , 1035.9 hPa
Clouds: Clear
Visibility: 10 miles , 16 km
2020/01/20 07:53 KPNC 200753Z AUTO 06009KT 10SM CLR M05/M10 A3059 RMK AO2 SLP366 T10501100
KCNU - Chanute, Kansas, USA
Distance from station: NNE 69mi, 112km
Updated: Mon, 20-Jan-2020 1:52am CST
Clear
Clear
 Wind from N
Wind: N 5 mph , 7 km/h
Temperature: 18°F , -8°C
Wind Chill: 11°F , -12°C
Dew Point: 9°F , -13°C
Humidity: 68%
Barometer: 30.61 inHg , 1036.6 hPa
Clouds: Clear
Visibility: 10 miles , 16 km
2020/01/20 07:52 KCNU 200752Z AUTO 35004KT 10SM CLR M08/M13 A3061 RMK AO2 SLP375 T10781128